Sacramento, CA

8:29 AM PDT on September 04, 2015 (GMT -0700)
Natomas Park, CA | | Change Station
CLOSE
Current Station
Personal Weather Station
Location: Sacramento, CA
Elevation: 40 ft
Nearby Weather Stations

Elev 40 ft 38.67 °N, 121.52 °W | Updated 9 seconds ago

Clear
Clear
61.2 °F
Feels Like 61.2 °F
N
9.0
Wind Variable Wind from South
Gusts 14.0 mph

Today
High -- | Low -- °F
--% Chance of Precip.
Yesterday
High -- | Low -- °F
Precip. -- in
6:37 AM 7:31 PM
Waning Gibbous, 58% visible
Pressure 29.80 in
Visibility 10.0 miles
Clouds Clear
Dew Point 40 °F
Humidity 45%
Rainfall 0.00 in
Snow Depth Not available.
UV 1 out of 12
Pollen 8.90 out of 12
Air Quality Not available.
Flu Activity Not available.
METAR KSMF 041453Z 18010KT 10SM CLR 15/11 A2980 RMK AO2 SLP091 T01500111 53011
Pressure 29.80 in
Visibility 10.0 miles
Clouds Clear
Dew Point 40 °F
Humidity 45%
Rainfall 0.00 in
Snow Depth Not available.
UV 1 out of 12
Pollen 8.90 out of 12
Air Quality Not available.
Flu Activity Not available.
METAR KSMF 041453Z 18010KT 10SM CLR 15/11 A2980 RMK AO2 SLP091 T01500111 53011

10-Day Weather Forecast

×

Almanac

Astronomy

Sep. 04, 2015 Rise Set
Actual Time
Civil Twilight
Nautical Twilight
Astronomical Twilight
Moon
Length of Visible Light
Length of Day
Tomorrow will be .
, % of the Moon is Illuminated

Today's Extremes

State Highs State Lows

Community

WunderPhotos

Upload Photos

1,852,194 photos uploaded!

WunderBlogs® & News

Nearby

Air Quality

  Air Quality AQ Index Pollutant
Not available.

Snow Depth

Station Depth Elevation

Earthquake Activity

City Distance Mag. Time & Date
Minimum magnitude displayed is 2.5.

Coastal Water Temperatures

Place Temperature

Stations

Nearby Weather Stations

Station Location Temp. Windchill Dew Point Humidity Wind Precip. Elev Updated Type